KAMN

Gratiot Community Airport

Alma, Michigan, USA
METAR KAMN 150038Z AUTO 24005KT 10SM CLR 25/17 A2994 RMK AO2 T02540172
Observed Flight Rules
Aug-15 @ 00:38 UTC (27 minutes ago) Visual Flight Rules
Wind Visibility Clouds
240° at 5 knots 10 miles
  • Clear skies
Temperatures Readings
Current 25°C / 77°F
Dewpoint 17°C / 63°F
Humidity 61%
Altimeter 29.94" Hg
Pressure 1014 hPa
Elevation 230
METAR KAMN 150038Z AUTO 24005KT 10SM CLR 25/17 A2994 RMK AO2 T02540172
Observed Flight Rules
Aug-15 @ 00:38 UTC
(27 minutes ago)
VFR
Wind Visibility
240° at 5 knots 10 miles
Clouds
  • Clear skies
Temperature Dewpoint
25°C / 77°F 17°C / 63°F
Humidity Altimeter Pressure
61% 29.94" Hg 1014 hPa